Аэропорт: Жезказган. Жезказган

ICAO: UAKD

METAR:
2020-02-20 07:00:00
UAKD 200700Z 11003MPS 9999 NSC M09/M11 Q1028 R22/410060 NOSIG RMK QFE737/0983
METAR:
2020-02-20 05:00:00
TAF UAKD 200500Z 2006/2015 12004MPS 6000 SCT011 BKN100 TEMPO 2006/2012 VRB02MPS BKN007 BKN011 TEMPO 2012/2015 VRB02MPS 3100 BR SCT007 BKN011